createdAt,value
2022-11-22T00:01:02.187Z,99403.78
2022-11-22T00:03:43.265Z,99388.09
2022-11-22T00:06:24.692Z,99393.34
2022-11-22T00:09:05.145Z,99392.16
2022-11-22T00:11:45.827Z,99401.88
2022-11-22T00:14:26.696Z,99399.75
2022-11-22T00:17:05.250Z,99399.25
2022-11-22T00:19:45.259Z,99407.84
2022-11-22T00:22:26.112Z,99415.44
2022-11-22T00:25:08.223Z,99413.16
2022-11-22T00:28:02.913Z,99416.38
2022-11-22T00:30:44.245Z,99432.19
2022-11-22T00:33:24.102Z,99440.63
2022-11-22T00:36:05.729Z,99455.56
2022-11-22T00:38:47.866Z,99451.31
2022-11-22T00:41:28.271Z,99461.63
2022-11-22T00:44:08.282Z,99479.09
2022-11-22T00:46:50.468Z,99488.09
2022-11-22T00:49:32.231Z,99497.13
2022-11-22T00:52:12.325Z,99512.56
2022-11-22T00:55:24.820Z,99519.09
2022-11-22T00:58:07.120Z,99533.25
2022-11-22T01:00:50.973Z,99552.25
2022-11-22T01:03:35.827Z,99559.16
2022-11-22T01:06:16.752Z,99562.25
2022-11-22T01:08:57.542Z,99581.72
2022-11-22T01:11:37.921Z,99577.69
2022-11-22T01:14:17.999Z,99576.72
2022-11-22T01:16:59.118Z,99574.34
2022-11-22T01:19:50.754Z,99576.97
2022-11-22T01:22:32.124Z,99589.56
2022-11-22T01:25:12.232Z,99581.72
2022-11-22T01:27:54.328Z,99594.78
2022-11-22T01:30:34.738Z,99598.72
2022-11-22T01:33:16.557Z,99595.25
2022-11-22T01:35:58.426Z,99596.69
2022-11-22T01:38:40.019Z,99603.16
2022-11-22T01:41:20.422Z,99607.53
2022-11-22T01:44:13.764Z,99616.09
2022-11-22T01:47:14.232Z,99602.31
2022-11-22T01:50:07.103Z,99590.28
2022-11-22T01:52:49.208Z,99590.56
2022-11-22T01:55:29.600Z,99593.41
2022-11-22T01:58:12.348Z,99585.78
2022-11-22T02:00:52.466Z,99592.44
2022-11-22T02:03:59.470Z,99593.66
2022-11-22T02:06:42.704Z,99580.34
2022-11-22T02:09:23.356Z,99565.16
2022-11-22T02:12:03.551Z,99577.28
2022-11-22T02:14:44.698Z,99582.63
2022-11-22T02:17:38.783Z,99580.00
2022-11-22T02:20:19.255Z,99578.09
2022-11-22T02:23:02.656Z,99574.91
2022-11-22T02:25:55.040Z,99564.53
2022-11-22T02:28:38.707Z,99565.63
2022-11-22T02:31:42.564Z,99576.31
2022-11-22T02:34:23.093Z,99575.50
2022-11-22T02:37:04.417Z,99577.50
2022-11-22T02:39:45.282Z,99581.19
2022-11-22T02:42:25.712Z,99578.47
2022-11-22T02:45:08.599Z,99569.91
2022-11-22T02:48:06.915Z,99559.22
2022-11-22T02:50:49.016Z,99554.56
2022-11-22T02:53:32.537Z,99545.31
2022-11-22T02:56:10.540Z,99531.41
2022-11-22T02:58:51.610Z,99545.41
2022-11-22T03:01:33.121Z,99546.50
2022-11-22T03:04:24.353Z,99540.53
2022-11-22T03:07:17.191Z,99548.28
2022-11-22T03:09:57.657Z,99542.31
2022-11-22T03:12:38.513Z,99544.72
2022-11-22T03:15:17.115Z,99555.53
2022-11-22T03:17:59.499Z,99557.91
2022-11-22T03:20:41.047Z,99552.22
2022-11-22T03:23:22.483Z,99543.06
2022-11-22T03:26:07.128Z,99540.53
2022-11-22T03:28:48.536Z,99546.38
2022-11-22T03:31:29.024Z,99541.38
2022-11-22T03:34:22.076Z,99542.59
2022-11-22T03:37:13.669Z,99540.09
2022-11-22T03:39:53.458Z,99547.81
2022-11-22T03:42:33.339Z,99543.28
2022-11-22T03:45:14.976Z,99538.66
2022-11-22T03:48:16.294Z,99539.72
2022-11-22T03:51:04.603Z,99530.00
2022-11-22T03:53:45.565Z,99521.28
2022-11-22T03:56:26.946Z,99522.38
2022-11-22T03:59:19.142Z,99514.28
2022-11-22T04:02:01.587Z,99518.34
2022-11-22T04:04:41.896Z,99522.03
2022-11-22T04:07:21.771Z,99529.97
2022-11-22T04:10:04.321Z,99530.91
2022-11-22T04:12:45.498Z,99527.72
2022-11-22T04:15:27.109Z,99531.03
2022-11-22T04:18:18.823Z,99529.63
2022-11-22T04:21:18.834Z,99524.41
2022-11-22T04:24:16.599Z,99526.19
2022-11-22T04:27:09.386Z,99525.34
2022-11-22T04:29:54.418Z,99516.06
2022-11-22T04:32:51.223Z,99511.31
2022-11-22T04:35:41.632Z,99536.97
2022-11-22T04:38:28.776Z,99517.00
2022-11-22T04:41:07.195Z,99514.16
2022-11-22T04:44:14.302Z,99523.91
2022-11-22T04:46:52.323Z,99515.59
2022-11-22T04:49:35.382Z,99526.16
2022-11-22T04:52:33.083Z,99518.09
2022-11-22T04:55:15.526Z,99508.56
2022-11-22T04:57:59.918Z,99506.44
2022-11-22T05:00:40.568Z,99503.44
2022-11-22T05:03:21.947Z,99503.91
2022-11-22T05:06:03.555Z,99496.19
2022-11-22T05:08:42.926Z,99497.97
2022-11-22T05:11:23.019Z,99496.75
2022-11-22T05:14:05.223Z,99496.31
2022-11-22T05:16:45.716Z,99500.94
2022-11-22T05:19:31.499Z,99496.63
2022-11-22T05:22:50.398Z,99495.94
2022-11-22T05:25:29.536Z,99501.66
2022-11-22T05:28:15.892Z,99502.09
2022-11-22T05:30:59.119Z,99502.69
2022-11-22T05:33:41.055Z,99500.69
2022-11-22T05:36:23.864Z,99500.91
2022-11-22T05:39:10.894Z,99494.34
2022-11-22T05:41:56.724Z,99486.59
2022-11-22T05:44:37.401Z,99491.50
2022-11-22T05:47:21.809Z,99496.59
2022-11-22T05:50:42.075Z,99493.88
2022-11-22T05:53:23.138Z,99493.59
2022-11-22T05:56:06.116Z,99498.34
2022-11-22T05:58:46.582Z,99502.50
2022-11-22T06:01:32.016Z,99502.28
2022-11-22T06:04:11.359Z,99492.88
2022-11-22T06:06:52.479Z,99501.44
2022-11-22T06:09:33.768Z,99505.59
2022-11-22T06:12:11.672Z,99500.34
2022-11-22T06:14:54.750Z,99510.06
2022-11-22T06:17:34.819Z,99496.28
2022-11-22T06:20:16.687Z,99496.28
2022-11-22T06:22:58.148Z,99485.53
2022-11-22T06:25:41.043Z,99495.06
2022-11-22T06:28:22.016Z,99496.63
2022-11-22T06:31:07.760Z,99492.22
2022-11-22T06:33:50.088Z,99479.22
2022-11-22T06:36:31.790Z,99471.50
2022-11-22T06:39:13.521Z,99480.53
2022-11-22T06:41:52.951Z,99485.75
2022-11-22T06:44:46.135Z,99490.88
2022-11-22T06:48:09.061Z,99488.13
2022-11-22T06:50:50.457Z,99492.09
2022-11-22T06:53:46.389Z,99481.22
2022-11-22T06:56:31.463Z,99489.53
2022-11-22T06:59:12.299Z,99493.09
2022-11-22T07:01:51.789Z,99498.59
2022-11-22T07:04:50.940Z,99507.41
2022-11-22T07:07:41.324Z,99513.50
2022-11-22T07:10:25.145Z,99517.66
2022-11-22T07:13:05.623Z,99535.03
2022-11-22T07:16:37.675Z,99546.69
2022-11-22T07:19:17.091Z,99554.53
2022-11-22T07:21:58.797Z,99551.66
2022-11-22T07:24:40.591Z,99551.16
2022-11-22T07:27:22.834Z,99559.97
2022-11-22T07:30:03.509Z,99556.41
2022-11-22T07:32:53.252Z,99567.56
2022-11-22T07:35:33.451Z,99580.69
2022-11-22T07:38:29.162Z,99590.19
2022-11-22T07:41:20.070Z,99615.31
2022-11-22T07:44:00.922Z,99614.00
2022-11-22T07:46:42.610Z,99596.25
2022-11-22T07:49:21.592Z,99610.31
2022-11-22T07:52:05.931Z,99607.03
2022-11-22T07:54:56.401Z,99629.53
2022-11-22T07:57:38.848Z,99606.78
2022-11-22T08:00:19.284Z,99608.94
2022-11-22T08:03:00.148Z,99614.75
2022-11-22T08:05:40.158Z,99621.53
2022-11-22T08:08:21.601Z,99624.13
2022-11-22T08:11:03.158Z,99627.34
2022-11-22T08:13:46.468Z,99634.59
2022-11-22T08:16:28.360Z,99639.56
2022-11-22T08:19:08.825Z,99639.56
2022-11-22T08:21:56.993Z,99644.03
2022-11-22T08:24:39.685Z,99646.88
2022-11-22T08:27:23.113Z,99649.13
2022-11-22T08:30:04.190Z,99660.53
2022-11-22T08:32:43.442Z,99671.13
2022-11-22T08:35:23.730Z,99666.34
2022-11-22T08:38:05.370Z,99668.69
2022-11-22T08:40:47.458Z,99685.44
2022-11-22T08:43:25.948Z,99675.81
2022-11-22T08:46:06.366Z,99681.94
2022-11-22T08:48:53.978Z,99684.88
2022-11-22T08:51:36.939Z,99694.03
2022-11-22T08:54:19.202Z,99692.94
2022-11-22T08:57:01.651Z,99696.84
2022-11-22T08:59:42.761Z,99695.78
2022-11-22T09:02:25.099Z,99690.81
2022-11-22T09:05:05.884Z,99689.03
2022-11-22T09:10:48.463Z,99685.22
2022-11-22T09:13:28.951Z,99687.72
2022-11-22T09:16:12.820Z,99682.88
2022-11-22T09:18:53.342Z,99678.06
2022-11-22T09:21:35.795Z,99672.09
2022-11-22T09:24:16.336Z,99651.38
2022-11-22T09:27:03.620Z,99645.59
2022-11-22T09:29:43.763Z,99637.72
2022-11-22T09:32:36.313Z,99625.88
2022-11-22T09:35:20.115Z,99615.72
2022-11-22T09:38:04.133Z,99597.38
2022-11-22T09:40:47.730Z,99584.34
2022-11-22T09:43:30.991Z,99561.41
2022-11-22T09:46:18.420Z,99543.00
2022-11-22T09:49:02.775Z,99526.09
2022-11-22T09:51:42.986Z,99506.72
2022-11-22T09:54:26.370Z,99472.00
2022-11-22T09:57:20.116Z,99438.59
2022-11-22T10:00:03.212Z,99398.00
2022-11-22T10:03:00.620Z,99370.53
2022-11-22T10:05:43.050Z,99322.63
2022-11-22T10:08:33.239Z,99288.75
2022-11-22T10:11:16.745Z,99254.25
2022-11-22T10:14:00.286Z,99219.22
2022-11-22T10:16:42.446Z,99195.16
2022-11-22T10:19:24.903Z,99188.69
2022-11-22T10:22:05.990Z,99159.75
2022-11-22T10:24:47.618Z,99154.84
2022-11-22T10:27:28.944Z,99116.06
2022-11-22T10:30:13.290Z,99077.75
2022-11-22T10:32:57.344Z,99035.78
2022-11-22T10:35:47.559Z,99010.75
2022-11-22T10:38:40.861Z,98964.69
2022-11-22T10:41:27.019Z,98931.28
2022-11-22T10:44:08.940Z,98901.50
2022-11-22T10:46:56.741Z,98874.34
2022-11-22T10:49:58.646Z,98848.97
2022-11-22T10:52:44.028Z,98825.91
2022-11-22T10:55:27.648Z,98806.00
2022-11-22T11:11:45.848Z,98670.16
2022-11-22T11:14:28.084Z,98661.41
2022-11-22T11:17:10.992Z,98653.63
2022-11-22T11:19:52.020Z,98634.84
2022-11-22T11:23:06.607Z,98631.72
2022-11-22T11:25:40.284Z,98625.16
2022-11-22T11:28:22.044Z,98616.84
2022-11-22T11:31:09.691Z,98594.84
2022-11-22T11:33:49.055Z,98590.66
2022-11-22T11:36:27.261Z,98591.81
2022-11-22T11:39:19.513Z,98582.34
2022-11-22T11:42:00.277Z,98579.06
2022-11-22T11:44:41.384Z,98591.84
2022-11-22T11:47:21.608Z,98602.94
2022-11-22T11:50:04.802Z,98613.97
2022-11-22T11:52:50.744Z,98625.63
2022-11-22T11:55:32.975Z,98635.91
2022-11-22T11:58:17.665Z,98637.25
2022-11-22T12:11:39.812Z,98880.13
2022-11-22T12:14:22.535Z,98886.06
2022-11-22T12:17:05.373Z,98882.66
2022-11-22T12:19:48.732Z,98887.97
2022-11-22T12:22:50.820Z,98883.41
2022-11-22T12:25:34.138Z,98883.81
2022-11-22T12:28:18.029Z,98861.47
2022-11-22T12:31:01.161Z,98864.31
2022-11-22T12:33:43.868Z,98872.50
2022-11-22T12:36:32.331Z,98870.69
2022-11-22T12:39:16.028Z,98864.56
2022-11-22T12:41:58.108Z,98864.38
2022-11-22T12:44:40.863Z,98871.34
2022-11-22T12:47:25.624Z,98856.59
2022-11-22T12:50:09.194Z,98863.28
2022-11-22T12:52:51.490Z,98855.53
2022-11-22T12:56:18.851Z,98857.25
2022-11-22T12:59:00.857Z,98846.69
2022-11-22T13:01:47.073Z,98850.19
2022-11-22T13:04:31.491Z,98842.44
2022-11-22T13:07:12.947Z,98846.25
2022-11-22T13:09:56.236Z,98841.31
2022-11-22T13:12:36.740Z,98844.59
2022-11-22T13:15:20.125Z,98841.13
2022-11-22T13:18:03.447Z,98833.03
2022-11-22T13:20:45.495Z,98833.25
2022-11-22T13:23:32.810Z,98827.69
2022-11-22T13:26:15.299Z,98827.50
2022-11-22T13:28:53.827Z,98835.84
2022-11-22T13:31:40.951Z,98828.88
2022-11-22T13:34:23.418Z,98843.38
2022-11-22T13:37:08.460Z,98850.94
2022-11-22T13:39:50.405Z,98856.22
2022-11-22T13:42:31.780Z,98854.72
2022-11-22T13:45:22.620Z,98853.91
2022-11-22T13:48:01.193Z,98853.22
2022-11-22T13:50:58.408Z,98860.56
2022-11-22T13:53:40.359Z,98858.63
2022-11-22T13:56:37.754Z,98862.16
2022-11-22T13:59:18.257Z,98850.06
2022-11-22T14:02:04.743Z,98848.41
2022-11-22T14:04:45.493Z,98861.16
2022-11-22T14:07:30.445Z,98870.53
2022-11-22T14:10:28.596Z,98869.84
2022-11-22T14:13:12.058Z,98878.59
2022-11-22T14:15:58.263Z,98871.69
2022-11-22T14:18:44.179Z,98871.84
2022-11-22T14:21:28.850Z,98878.03
2022-11-22T14:24:10.037Z,98875.06
2022-11-22T14:26:50.640Z,98877.41
2022-11-22T14:29:38.873Z,98870.47
2022-11-22T14:32:21.892Z,98876.13
2022-11-22T14:35:29.003Z,98866.59
2022-11-22T14:38:29.435Z,98868.00
2022-11-22T14:41:25.260Z,98866.66
2022-11-22T14:44:08.386Z,98865.25
2022-11-22T14:46:54.195Z,98873.97
2022-11-22T14:49:39.607Z,98867.06
2022-11-22T14:52:21.073Z,98867.41
2022-11-22T14:55:01.104Z,98870.94
2022-11-22T14:57:48.836Z,98869.13
2022-11-22T15:00:50.866Z,98881.06
2022-11-22T15:03:46.471Z,98884.50
2022-11-22T15:09:20.358Z,98882.06
2022-11-22T15:09:52.600Z,98886.69
2022-11-22T15:12:36.467Z,98882.09
2022-11-22T15:58:45.877Z,98642.81
2022-11-22T16:01:26.055Z,98645.44
2022-11-22T16:04:16.019Z,98642.97
2022-11-22T16:07:23.491Z,98640.34
2022-11-22T16:10:01.722Z,98644.13
2022-11-22T16:12:43.902Z,98656.28
2022-11-22T16:15:27.151Z,98675.31
2022-11-22T16:18:12.772Z,98665.50
2022-11-22T16:21:01.431Z,98674.03
2022-11-22T16:23:41.221Z,98691.47
2022-11-22T16:26:22.255Z,98701.31
2022-11-22T16:29:17.027Z,98712.50
2022-11-22T16:32:05.370Z,98724.19
2022-11-22T16:34:47.035Z,98736.88
2022-11-22T16:37:31.781Z,98747.06
2022-11-22T16:40:19.570Z,98743.13
2022-11-22T16:43:04.230Z,98765.84
2022-11-22T16:45:46.767Z,98763.38
2022-11-22T16:48:32.527Z,98766.31
2022-11-22T16:51:14.887Z,98768.94
2022-11-22T16:53:56.486Z,98775.06
2022-11-22T16:56:37.229Z,98771.09
2022-11-22T16:59:18.069Z,98765.84
2022-11-22T17:02:00.708Z,98762.88
2022-11-22T17:04:41.417Z,98762.53
2022-11-22T17:07:24.205Z,98764.06
2022-11-22T17:10:04.420Z,98765.38
2022-11-22T17:12:46.679Z,98757.94
2022-11-22T17:15:27.019Z,98766.34
2022-11-22T17:18:07.217Z,98758.59
2022-11-22T17:20:49.271Z,98761.06
2022-11-22T17:23:30.495Z,98761.72
2022-11-22T17:26:13.068Z,98757.28
2022-11-22T17:28:56.216Z,98751.53
2022-11-22T17:31:37.294Z,98740.16
2022-11-22T17:34:18.526Z,98748.06
2022-11-22T17:37:04.254Z,98747.75
2022-11-22T17:39:56.284Z,98751.19
2022-11-22T17:42:40.992Z,98745.75
2022-11-22T17:45:22.383Z,98756.31
2022-11-22T17:48:06.255Z,98757.59
2022-11-22T17:50:47.720Z,98760.88
2022-11-22T17:53:28.119Z,98770.13
2022-11-22T17:56:10.943Z,98763.53
2022-11-22T17:58:52.547Z,98764.34
2022-11-22T18:01:33.730Z,98754.47
2022-11-22T18:04:17.355Z,98755.47
2022-11-22T18:06:59.334Z,98753.66
2022-11-22T18:09:39.905Z,98758.59
2022-11-22T18:12:20.232Z,98764.69
2022-11-22T18:15:00.344Z,98765.16
2022-11-22T18:17:46.783Z,98768.44
2022-11-22T18:20:27.010Z,98771.75
2022-11-22T18:23:07.214Z,98774.72
2022-11-22T18:25:49.225Z,98779.66
2022-11-22T18:28:30.634Z,98784.59
2022-11-22T18:31:11.087Z,98782.28
2022-11-22T18:33:52.909Z,98791.00
2022-11-22T18:36:54.619Z,98788.88
2022-11-22T18:39:39.102Z,98788.06
2022-11-22T18:42:22.463Z,98794.97
2022-11-22T18:45:03.868Z,98795.47
2022-11-22T18:48:03.498Z,98804.69
2022-11-22T18:50:42.732Z,98798.09
2022-11-22T18:53:27.940Z,98814.41
2022-11-22T18:56:09.951Z,98816.88
2022-11-22T18:58:51.615Z,98812.25
2022-11-22T19:01:31.953Z,98820.66
2022-11-22T19:04:15.030Z,98822.28
2022-11-22T19:06:56.379Z,98819.16
2022-11-22T19:09:39.762Z,98820.16
2022-11-22T19:12:20.713Z,98813.72
2022-11-22T19:15:01.490Z,98813.91
2022-11-22T19:17:40.407Z,98810.25
2022-11-22T19:20:53.538Z,98809.94
2022-11-22T19:23:22.331Z,98798.09
2022-11-22T19:26:03.872Z,98797.94
2022-11-22T19:28:45.191Z,98795.47
2022-11-22T19:31:25.711Z,98793.50
2022-11-22T19:34:09.533Z,98791.81
2022-11-22T19:36:49.463Z,98793.16
2022-11-22T19:39:42.673Z,98796.94
2022-11-22T19:42:26.655Z,98803.34
2022-11-22T19:45:07.348Z,98801.41
2022-11-22T19:47:50.451Z,98799.91
2022-11-22T19:50:31.557Z,98798.41
2022-11-22T19:53:13.847Z,98808.97
2022-11-22T19:55:56.253Z,98798.75
2022-11-22T19:58:39.315Z,98803.19
2022-11-22T20:01:21.712Z,98809.94
2022-11-22T20:04:03.303Z,98819.00
2022-11-22T20:06:49.715Z,98812.59
2022-11-22T20:09:33.135Z,98813.56
2022-11-22T20:12:13.816Z,98821.31
2022-11-22T20:14:54.016Z,98821.97
2022-11-22T20:17:36.227Z,98828.06
2022-11-22T20:20:16.896Z,98829.69
2022-11-22T20:22:59.895Z,98826.06
2022-11-22T20:25:41.352Z,98836.31
2022-11-22T20:28:23.361Z,98842.88
2022-11-22T20:31:07.494Z,98857.38
2022-11-22T20:33:46.855Z,98843.84
2022-11-22T20:36:26.842Z,98854.41
2022-11-22T20:39:10.445Z,99083.50
2022-11-22T20:42:11.726Z,99087.31
2022-11-22T20:44:54.140Z,99091.75
2022-11-22T20:47:41.705Z,99091.75
2022-11-22T20:50:22.356Z,99091.59
2022-11-22T20:53:05.202Z,99091.78
2022-11-22T20:55:45.515Z,99091.78
2022-11-22T20:58:28.144Z,99091.78
2022-11-22T21:01:12.686Z,99093.59
2022-11-22T21:03:52.920Z,99100.50
2022-11-22T21:06:34.986Z,99097.69
2022-11-22T21:09:16.153Z,99104.63
2022-11-22T21:11:59.825Z,99107.94
2022-11-22T21:14:40.972Z,99112.06
2022-11-22T21:17:45.595Z,99112.59
2022-11-22T21:20:31.620Z,99113.75
2022-11-22T21:23:18.852Z,99114.75
2022-11-22T21:26:01.075Z,99122.00
2022-11-22T21:28:42.129Z,99124.63
2022-11-22T21:31:22.242Z,99125.28
2022-11-22T21:34:03.282Z,99122.00
2022-11-22T21:36:45.210Z,99134.16
2022-11-22T21:39:28.149Z,99126.78
2022-11-22T21:42:10.123Z,99134.53
2022-11-22T21:45:02.202Z,99131.72
2022-11-22T21:47:44.191Z,99136.66
2022-11-22T21:50:24.544Z,99137.97
2022-11-22T21:53:05.460Z,99144.06
2022-11-22T21:55:50.606Z,99137.16
2022-11-22T21:58:33.155Z,99134.69
2022-11-22T22:01:16.440Z,99152.47
2022-11-22T22:03:56.426Z,99142.09
2022-11-22T22:06:44.827Z,99149.72
2022-11-22T22:09:29.546Z,99154.63
2022-11-22T22:12:08.458Z,99157.28
2022-11-22T22:14:49.385Z,99147.91
2022-11-22T22:17:29.852Z,99158.97
2022-11-22T22:20:10.175Z,99155.34
2022-11-22T22:22:49.605Z,99154.19
2022-11-22T22:25:30.848Z,99159.09
2022-11-22T22:28:11.601Z,99156.28
2022-11-22T22:30:52.098Z,99158.91
2022-11-22T22:33:31.866Z,99167.03
2022-11-22T22:36:12.087Z,99166.81
2022-11-22T22:38:54.146Z,99164.69
2022-11-22T22:41:36.491Z,99168.31
2022-11-22T22:44:17.487Z,99162.53
2022-11-22T22:46:59.323Z,99161.56
2022-11-22T22:49:41.299Z,99169.13
2022-11-22T22:52:21.714Z,99159.09
2022-11-22T22:55:01.494Z,99154.13
2022-11-22T22:57:41.309Z,99155.28
2022-11-22T23:00:22.137Z,99157.28
2022-11-22T23:03:03.660Z,99152.16
2022-11-22T23:05:44.132Z,99153.97
2022-11-22T23:08:27.366Z,99151.16
2022-11-22T23:11:08.090Z,99144.09
2022-11-22T23:13:49.197Z,99146.56
2022-11-22T23:16:29.543Z,99151.34
2022-11-22T23:19:09.410Z,99143.94
2022-11-22T23:21:50.805Z,99142.63
2022-11-22T23:24:31.861Z,99144.09
2022-11-22T23:27:13.011Z,99143.47
2022-11-22T23:29:58.427Z,99140.47
2022-11-22T23:32:41.619Z,99143.09
2022-11-22T23:35:22.712Z,99135.69
2022-11-22T23:38:04.053Z,99143.94
2022-11-22T23:40:43.864Z,99147.09
2022-11-22T23:43:25.720Z,99143.75
2022-11-22T23:46:08.977Z,99152.66
2022-11-22T23:48:53.523Z,99145.41
2022-11-22T23:51:37.319Z,99140.47
2022-11-22T23:54:17.428Z,99146.88
2022-11-22T23:56:58.676Z,99138.47
2022-11-22T23:59:39.417Z,99143.44
